Washington, Nebraska
Current Conditions -  °F | °C
As of 4:55 AM on Monday 20 Oct 2014 (Local Time) from KBTA Reporting Station
Clear Clear  
Wind Chill: 11°   Ceiling: Unl
Heat Index: 11°   Visibility: 10mi
Dew Point:   Wind: 10mph
Humidity: 78%   Direction: 10°N
Pressure: 29.99"   Gusts: NA
Location:  41.4°N, 96.21°W
Report Text: KBTA 200955Z AUTO 01009KT 10SM CLR 11/08 A2999 RMK AO2 T01130075
Loading
Personal Weather Stations






























Interactive Weather Map
Tropical Storm Tracking
New forecast layout! Learn more

10-Day Weather Forecast

Advertisements
Track Severe Weather on mobile